createdAt,value
2018-03-22T00:00:09.895Z,78.59
2018-03-22T00:01:09.810Z,78.78
2018-03-22T00:02:09.725Z,78.97
2018-03-22T00:03:09.640Z,78.68
2018-03-22T00:04:09.559Z,78.31
2018-03-22T00:05:09.468Z,78.78
2018-03-22T00:06:09.383Z,79.53
2018-03-22T00:07:09.297Z,78.97
2018-03-22T00:08:09.212Z,78.78
2018-03-22T00:09:09.125Z,80.10
2018-03-22T00:10:09.040Z,80.95
2018-03-22T00:11:08.955Z,79.82
2018-03-22T00:12:08.872Z,78.21
2018-03-22T00:13:08.787Z,78.21
2018-03-22T00:14:08.702Z,77.55
2018-03-22T00:15:08.613Z,78.59
2018-03-22T00:16:08.527Z,78.78
2018-03-22T00:17:08.441Z,78.68
2018-03-22T00:18:08.356Z,78.12
2018-03-22T00:19:08.271Z,78.31
2018-03-22T00:20:08.184Z,78.97
2018-03-22T00:21:08.099Z,79.16
2018-03-22T00:22:08.014Z,80.19
2018-03-22T00:23:07.929Z,79.82
2018-03-22T00:24:07.843Z,79.06
2018-03-22T00:25:07.758Z,80.00
2018-03-22T00:26:07.672Z,78.68
2018-03-22T00:27:07.586Z,78.87
2018-03-22T00:28:07.499Z,79.63
2018-03-22T00:29:07.414Z,81.14
2018-03-22T00:30:07.329Z,81.23
2018-03-22T00:31:07.244Z,80.95
2018-03-22T00:32:07.163Z,82.37
2018-03-22T00:33:07.072Z,83.03
2018-03-22T00:34:06.987Z,82.46
2018-03-22T00:35:06.900Z,81.33
2018-03-22T00:36:06.819Z,80.66
2018-03-22T00:37:06.729Z,80.00
2018-03-22T00:38:06.643Z,80.48
2018-03-22T00:39:06.560Z,80.76
2018-03-22T00:40:06.472Z,79.44
2018-03-22T00:41:06.386Z,79.53
2018-03-22T00:42:06.299Z,79.16
2018-03-22T00:43:06.215Z,79.16
2018-03-22T00:44:06.128Z,80.19
2018-03-22T00:45:06.042Z,80.66
2018-03-22T00:46:05.957Z,79.06
2018-03-22T00:47:05.872Z,78.12
2018-03-22T00:48:05.785Z,78.78
2018-03-22T00:49:05.700Z,78.97
2018-03-22T00:50:05.617Z,79.06
2018-03-22T00:51:05.529Z,78.78
2018-03-22T00:52:05.444Z,78.78
2018-03-22T00:53:05.357Z,79.82
2018-03-22T00:54:05.272Z,81.23
2018-03-22T00:55:05.186Z,81.42
2018-03-22T00:56:05.101Z,80.95
2018-03-22T00:57:05.014Z,81.14
2018-03-22T00:58:04.928Z,80.95
2018-03-22T00:59:04.842Z,80.19
2018-03-22T01:00:04.759Z,79.06
2018-03-22T01:01:04.670Z,80.29
2018-03-22T01:02:04.585Z,80.85
2018-03-22T01:03:04.500Z,80.66
2018-03-22T01:04:04.413Z,80.10
2018-03-22T01:05:04.328Z,80.38
2018-03-22T01:06:04.243Z,81.61
2018-03-22T01:07:04.157Z,81.61
2018-03-22T01:08:04.070Z,81.61
2018-03-22T01:09:03.985Z,81.52
2018-03-22T01:10:03.898Z,80.00
2018-03-22T01:11:03.817Z,81.04
2018-03-22T01:12:03.726Z,81.99
2018-03-22T01:13:03.641Z,81.42
2018-03-22T01:14:03.555Z,81.71
2018-03-22T01:15:03.473Z,80.85
2018-03-22T01:16:03.383Z,81.33
2018-03-22T01:17:03.298Z,80.38
2018-03-22T01:18:03.212Z,79.44
2018-03-22T01:19:03.128Z,80.00
2018-03-22T01:20:03.041Z,80.57
2018-03-22T01:21:02.954Z,80.00
2018-03-22T01:22:02.880Z,81.80
2018-03-22T01:23:02.781Z,82.09
2018-03-22T01:24:02.697Z,82.18
2018-03-22T01:25:02.610Z,81.99
2018-03-22T01:26:02.524Z,81.04
2018-03-22T01:27:02.440Z,81.71
2018-03-22T01:28:02.352Z,82.46
2018-03-22T01:29:02.268Z,82.84
2018-03-22T01:30:02.180Z,81.80
2018-03-22T01:31:02.096Z,81.71
2018-03-22T01:32:02.009Z,81.61
2018-03-22T01:33:01.923Z,82.37
2018-03-22T01:34:01.837Z,81.80
2018-03-22T01:35:01.750Z,81.80
2018-03-22T01:36:01.664Z,81.52
2018-03-22T01:37:01.577Z,81.14
2018-03-22T01:38:01.492Z,81.99
2018-03-22T01:39:01.412Z,82.75
2018-03-22T01:40:01.321Z,82.65
2018-03-22T01:41:01.243Z,83.31
2018-03-22T01:42:01.154Z,84.35
2018-03-22T01:43:01.062Z,83.97
2018-03-22T01:44:00.977Z,82.84
2018-03-22T01:45:00.891Z,83.31
2018-03-22T01:46:00.810Z,84.45
2018-03-22T01:47:00.719Z,84.26
2018-03-22T01:48:00.633Z,83.40
2018-03-22T01:49:00.547Z,82.28
2018-03-22T01:50:00.463Z,81.42
2018-03-22T01:51:00.376Z,82.18
2018-03-22T01:52:00.289Z,81.23
2018-03-22T01:53:00.204Z,80.29
2018-03-22T01:54:00.122Z,80.19
2018-03-22T01:55:00.033Z,81.14
2018-03-22T01:55:59.946Z,81.42
2018-03-22T01:56:59.861Z,79.25
2018-03-22T01:57:59.777Z,78.81
2018-03-22T01:58:59.689Z,79.82
2018-03-22T01:59:59.603Z,78.68
2018-03-22T02:00:59.517Z,79.38
2018-03-22T02:01:59.432Z,78.78
2018-03-22T02:02:59.344Z,79.35
2018-03-22T02:03:59.259Z,79.06
2018-03-22T02:04:59.174Z,80.00
2018-03-22T02:05:59.089Z,79.91
2018-03-22T02:06:59.005Z,80.57
2018-03-22T02:07:58.916Z,81.23
2018-03-22T02:08:58.830Z,81.71
2018-03-22T02:09:58.746Z,81.52
2018-03-22T02:10:58.660Z,81.61
2018-03-22T02:11:58.573Z,81.80
2018-03-22T02:12:58.488Z,80.66
2018-03-22T02:13:58.401Z,80.76
2018-03-22T02:14:58.316Z,80.57
2018-03-22T02:15:58.231Z,81.42
2018-03-22T02:16:58.145Z,81.52
2018-03-22T02:17:58.059Z,81.61
2018-03-22T02:18:57.974Z,79.91
2018-03-22T02:19:57.887Z,80.38
2018-03-22T02:20:57.802Z,80.66
2018-03-22T02:21:57.716Z,80.95
2018-03-22T02:22:57.630Z,82.09
2018-03-22T02:23:57.544Z,83.22
2018-03-22T02:24:57.459Z,82.18
2018-03-22T02:25:57.373Z,81.90
2018-03-22T02:26:57.288Z,80.66
2018-03-22T02:27:57.201Z,80.85
2018-03-22T02:28:57.119Z,82.18
2018-03-22T02:29:57.034Z,82.09
2018-03-22T02:30:56.946Z,82.84
2018-03-22T02:31:56.862Z,83.88
2018-03-22T02:32:56.773Z,83.59
2018-03-22T02:33:56.690Z,82.75
2018-03-22T02:34:56.603Z,82.65
2018-03-22T02:35:56.517Z,82.18
2018-03-22T02:36:56.468Z,81.52
2018-03-22T02:37:56.350Z,81.99
2018-03-22T02:38:56.261Z,80.80
2018-03-22T02:39:56.174Z,81.27
2018-03-22T02:40:56.089Z,81.74
2018-03-22T02:41:56.002Z,81.37
2018-03-22T02:42:55.917Z,81.56
2018-03-22T02:43:55.831Z,81.27
2018-03-22T02:44:55.745Z,81.37
2018-03-22T02:45:55.663Z,81.93
2018-03-22T02:46:55.576Z,81.27
2018-03-22T02:47:55.489Z,81.56
2018-03-22T02:48:55.408Z,82.12
2018-03-22T02:49:55.318Z,81.74
2018-03-22T02:50:55.235Z,79.76
2018-03-22T02:51:55.148Z,79.67
2018-03-22T02:52:55.062Z,78.06
2018-03-22T02:53:54.977Z,76.97
2018-03-22T02:54:54.892Z,76.50
2018-03-22T02:55:54.805Z,78.10
2018-03-22T02:56:54.719Z,78.53
2018-03-22T02:57:54.635Z,78.72
2018-03-22T02:58:54.551Z,78.34
2018-03-22T02:59:54.464Z,78.34
2018-03-22T03:00:54.378Z,77.40
2018-03-22T03:01:54.297Z,76.78
2018-03-22T03:02:54.214Z,76.68
2018-03-22T03:03:54.123Z,78.48
2018-03-22T03:04:54.038Z,77.72
2018-03-22T03:05:53.952Z,77.34
2018-03-22T03:06:53.874Z,75.83
2018-03-22T03:07:53.782Z,74.98
2018-03-22T03:08:53.738Z,75.55
2018-03-22T03:09:53.612Z,75.17
2018-03-22T03:10:53.526Z,74.60
2018-03-22T03:11:53.441Z,74.04
2018-03-22T03:12:53.356Z,73.85
2018-03-22T03:13:53.269Z,73.28
2018-03-22T03:14:53.186Z,72.90
2018-03-22T03:15:53.099Z,73.37
2018-03-22T03:16:53.015Z,72.62
2018-03-22T03:17:52.930Z,72.47
2018-03-22T03:18:52.846Z,71.42
2018-03-22T03:19:52.759Z,71.23
2018-03-22T03:20:52.676Z,70.48
2018-03-22T03:21:52.590Z,68.77
2018-03-22T03:22:52.505Z,68.12
2018-03-22T03:23:52.420Z,68.96
2018-03-22T03:24:52.334Z,68.77
2018-03-22T03:25:52.251Z,69.44
2018-03-22T03:26:52.167Z,69.34
2018-03-22T03:27:52.081Z,69.72
2018-03-22T03:28:51.997Z,69.34
2018-03-22T03:29:51.911Z,69.91
2018-03-22T03:30:51.836Z,70.39
2018-03-22T03:31:51.742Z,71.04
2018-03-22T03:32:51.658Z,71.42
2018-03-22T03:33:51.576Z,72.05
2018-03-22T03:34:51.489Z,72.85
2018-03-22T03:35:51.407Z,72.14
2018-03-22T03:36:51.320Z,72.14
2018-03-22T03:37:51.234Z,72.33
2018-03-22T03:38:51.151Z,72.99
2018-03-22T03:39:51.068Z,74.41
2018-03-22T03:40:50.980Z,74.41
2018-03-22T03:41:50.901Z,74.69
2018-03-22T03:42:50.812Z,74.32
2018-03-22T03:43:50.727Z,74.04
2018-03-22T03:44:50.642Z,74.60
2018-03-22T03:45:50.556Z,74.04
2018-03-22T03:46:50.474Z,74.79
2018-03-22T03:47:50.387Z,74.04
2018-03-22T03:48:50.317Z,74.04
2018-03-22T03:49:50.218Z,74.32
2018-03-22T03:50:50.135Z,73.85
2018-03-22T03:51:50.050Z,74.22
2018-03-22T03:52:49.965Z,74.79
2018-03-22T03:53:49.880Z,74.88
2018-03-22T03:54:49.797Z,73.94
2018-03-22T03:55:49.710Z,74.07
2018-03-22T03:56:49.626Z,73.22
2018-03-22T03:57:49.543Z,72.66
2018-03-22T03:58:49.459Z,72.66
2018-03-22T03:59:49.374Z,72.28
2018-03-22T04:00:49.289Z,72.18
2018-03-22T04:01:49.206Z,73.32
2018-03-22T04:02:49.120Z,73.13
2018-03-22T04:03:49.039Z,73.60
2018-03-22T04:04:48.951Z,72.52
2018-03-22T04:05:48.867Z,71.42
2018-03-22T04:06:48.783Z,72.09
2018-03-22T04:07:48.698Z,71.71
2018-03-22T04:08:48.613Z,72.28
2018-03-22T04:09:48.534Z,71.80
2018-03-22T04:10:48.446Z,71.61
2018-03-22T04:11:48.359Z,71.42
2018-03-22T04:12:48.279Z,70.76
2018-03-22T04:13:48.191Z,72.09
2018-03-22T04:14:48.107Z,71.90
2018-03-22T04:15:48.023Z,71.52
2018-03-22T04:16:47.938Z,72.37
2018-03-22T04:17:47.854Z,71.52
2018-03-22T04:18:47.769Z,70.48
2018-03-22T04:19:47.685Z,69.63
2018-03-22T04:20:47.600Z,70.10
2018-03-22T04:21:47.515Z,70.86
2018-03-22T04:22:47.432Z,69.91
2018-03-22T04:23:47.347Z,69.34
2018-03-22T04:24:47.263Z,69.44
2018-03-22T04:25:47.178Z,69.53
2018-03-22T04:26:47.097Z,70.20
2018-03-22T04:27:47.012Z,69.82
2018-03-22T04:28:46.925Z,69.63
2018-03-22T04:29:46.842Z,70.01
2018-03-22T04:30:46.756Z,69.72
2018-03-22T04:31:46.673Z,68.87
2018-03-22T04:32:46.587Z,69.44
2018-03-22T04:33:46.504Z,69.63
2018-03-22T04:34:46.420Z,69.91
2018-03-22T04:35:46.393Z,69.72
2018-03-22T04:36:46.251Z,70.39
2018-03-22T04:37:46.166Z,70.67
2018-03-22T04:38:46.082Z,70.39
2018-03-22T04:39:45.997Z,70.57
2018-03-22T04:40:45.913Z,69.44
2018-03-22T04:41:45.830Z,68.21
2018-03-22T04:42:45.746Z,68.40
2018-03-22T04:43:45.661Z,68.21
2018-03-22T04:44:45.577Z,68.12
2018-03-22T04:45:45.493Z,68.21
2018-03-22T04:46:45.408Z,68.02
2018-03-22T04:47:45.323Z,68.77
2018-03-22T04:48:45.240Z,69.25
2018-03-22T04:49:45.156Z,69.82
2018-03-22T04:50:45.073Z,70.01
2018-03-22T04:51:44.991Z,69.44
2018-03-22T04:52:44.903Z,69.82
2018-03-22T04:53:44.824Z,69.72
2018-03-22T04:54:44.734Z,69.44
2018-03-22T04:55:44.651Z,69.44
2018-03-22T04:56:44.567Z,69.34
2018-03-22T04:57:44.482Z,70.29
2018-03-22T04:58:44.399Z,68.87
2018-03-22T04:59:44.313Z,69.34
2018-03-22T05:00:44.234Z,69.72
2018-03-22T05:01:44.145Z,70.76
2018-03-22T05:02:44.061Z,69.82
2018-03-22T05:03:43.980Z,70.76
2018-03-22T05:04:43.892Z,71.23
2018-03-22T05:05:43.809Z,72.09
2018-03-22T05:06:43.728Z,72.28
2018-03-22T05:07:43.641Z,72.66
2018-03-22T05:08:43.557Z,72.37
2018-03-22T05:09:43.473Z,71.99
2018-03-22T05:10:43.390Z,71.04
2018-03-22T05:11:43.305Z,70.76
2018-03-22T05:12:43.220Z,70.57
2018-03-22T05:13:43.137Z,69.06
2018-03-22T05:14:43.054Z,67.64
2018-03-22T05:15:42.975Z,68.21
2018-03-22T05:16:42.889Z,69.34
2018-03-22T05:17:42.800Z,69.53
2018-03-22T05:18:42.771Z,68.21
2018-03-22T05:19:42.633Z,67.26
2018-03-22T05:20:42.548Z,68.21
2018-03-22T05:21:42.463Z,68.77
2018-03-22T05:22:42.379Z,68.02
2018-03-22T05:23:42.295Z,68.12
2018-03-22T05:24:42.212Z,69.53
2018-03-22T05:25:42.128Z,68.77
2018-03-22T05:26:42.043Z,68.30
2018-03-22T05:27:41.957Z,68.30
2018-03-22T05:28:41.873Z,69.06
2018-03-22T05:29:41.788Z,67.93
2018-03-22T05:30:41.706Z,68.49
2018-03-22T05:31:41.920Z,68.02
2018-03-22T05:32:41.536Z,69.06
2018-03-22T05:33:41.451Z,68.77
2018-03-22T05:34:41.368Z,68.40
2018-03-22T05:35:41.282Z,68.12
2018-03-22T05:36:41.196Z,69.34
2018-03-22T05:37:41.113Z,70.20
2018-03-22T05:38:41.028Z,69.34
2018-03-22T05:39:40.946Z,68.77
2018-03-22T05:40:40.860Z,68.12
2018-03-22T05:41:40.774Z,68.96
2018-03-22T05:42:40.691Z,69.25
2018-03-22T05:43:40.605Z,69.44
2018-03-22T05:44:40.529Z,69.53
2018-03-22T05:45:40.438Z,69.53
2018-03-22T05:46:40.352Z,69.63
2018-03-22T05:47:40.267Z,69.53
2018-03-22T05:48:40.186Z,69.15
2018-03-22T05:49:40.099Z,68.96
2018-03-22T05:50:40.018Z,68.77
2018-03-22T05:51:39.930Z,68.30
2018-03-22T05:52:39.846Z,67.26
2018-03-22T05:53:39.762Z,66.69
2018-03-22T05:54:39.678Z,66.60
2018-03-22T05:55:39.593Z,66.69
2018-03-22T05:56:39.508Z,66.79
2018-03-22T05:57:39.425Z,67.74
2018-03-22T05:58:39.341Z,68.21
2018-03-22T05:59:39.256Z,67.55
2018-03-22T06:00:39.171Z,66.88
2018-03-22T06:01:39.088Z,66.69
2018-03-22T06:02:39.004Z,65.75
2018-03-22T06:03:38.918Z,65.56
2018-03-22T06:04:38.835Z,65.66
2018-03-22T06:05:38.751Z,66.13
2018-03-22T06:06:38.674Z,65.56
2018-03-22T06:07:38.582Z,66.60
2018-03-22T06:08:38.498Z,67.07
2018-03-22T06:09:38.429Z,67.07
2018-03-22T06:10:38.331Z,67.36
2018-03-22T06:11:38.246Z,66.69
2018-03-22T06:12:38.163Z,67.36
2018-03-22T06:13:38.076Z,66.69
2018-03-22T06:14:37.994Z,64.90
2018-03-22T06:15:37.909Z,64.71
2018-03-22T06:16:37.824Z,63.67
2018-03-22T06:17:37.741Z,63.39
2018-03-22T06:18:37.660Z,63.85
2018-03-22T06:19:37.573Z,63.20
2018-03-22T06:20:37.489Z,63.01
2018-03-22T06:21:37.404Z,62.91
2018-03-22T06:22:37.321Z,63.76
2018-03-22T06:23:37.235Z,63.76
2018-03-22T06:24:37.151Z,63.76
2018-03-22T06:25:37.068Z,63.48
2018-03-22T06:26:36.984Z,63.29
2018-03-22T06:27:36.900Z,62.91
2018-03-22T06:28:36.815Z,63.48
2018-03-22T06:29:36.732Z,63.10
2018-03-22T06:30:36.648Z,63.01
2018-03-22T06:31:36.563Z,63.76
2018-03-22T06:32:36.477Z,63.48
2018-03-22T06:33:36.395Z,63.39
2018-03-22T06:34:36.311Z,63.57
2018-03-22T06:35:36.226Z,63.20
2018-03-22T06:36:36.142Z,63.01
2018-03-22T06:37:36.057Z,62.72
2018-03-22T06:38:35.975Z,62.15
2018-03-22T06:39:35.890Z,62.72
2018-03-22T06:40:35.805Z,62.72
2018-03-22T06:41:35.722Z,64.61
2018-03-22T06:42:35.937Z,64.26
2018-03-22T06:43:35.553Z,64.55
2018-03-22T06:44:35.470Z,63.79
2018-03-22T06:45:35.385Z,63.13
2018-03-22T06:46:35.302Z,63.04
2018-03-22T06:47:35.218Z,63.98
2018-03-22T06:48:35.136Z,63.60
2018-03-22T06:49:35.104Z,64.17
2018-03-22T06:50:34.966Z,63.70
2018-03-22T06:51:34.882Z,63.13
2018-03-22T06:52:34.806Z,63.13
2018-03-22T06:53:34.716Z,62.75
2018-03-22T06:54:34.632Z,62.28
2018-03-22T06:55:34.546Z,61.90
2018-03-22T06:56:34.465Z,62.85
2018-03-22T06:57:34.426Z,62.85
2018-03-22T06:58:34.298Z,62.56
2018-03-22T06:59:34.216Z,63.13
2018-03-22T07:00:34.130Z,63.23
2018-03-22T07:01:34.047Z,64.07
2018-03-22T07:02:33.964Z,64.17
2018-03-22T07:03:33.879Z,63.23
2018-03-22T07:04:33.796Z,63.60
2018-03-22T07:05:33.712Z,63.23
2018-03-22T07:06:33.629Z,63.89
2018-03-22T07:07:33.546Z,62.94
2018-03-22T07:08:33.462Z,62.66
2018-03-22T07:09:33.381Z,61.80
2018-03-22T07:10:33.297Z,61.90
2018-03-22T07:11:33.211Z,61.33
2018-03-22T07:12:33.129Z,60.67
2018-03-22T07:13:33.047Z,61.33
2018-03-22T07:14:33.006Z,61.24
2018-03-22T07:15:32.881Z,61.24
2018-03-22T07:16:32.796Z,60.96
2018-03-22T07:17:32.713Z,60.77
2018-03-22T07:18:32.778Z,61.71
2018-03-22T07:19:32.544Z,60.86
2018-03-22T07:20:32.461Z,60.96
2018-03-22T07:21:32.378Z,60.67
2018-03-22T07:22:32.296Z,61.61
2018-03-22T07:23:32.211Z,61.90
2018-03-22T07:24:32.128Z,62.18
2018-03-22T07:25:32.072Z,61.99
2018-03-22T07:26:31.961Z,62.66
2018-03-22T07:27:31.878Z,62.56
2018-03-22T07:28:31.795Z,63.42
2018-03-22T07:29:31.712Z,62.56
2018-03-22T07:30:31.629Z,62.47
2018-03-22T07:31:31.545Z,62.56
2018-03-22T07:32:31.466Z,61.43
2018-03-22T07:33:31.380Z,61.80
2018-03-22T07:34:31.297Z,63.13
2018-03-22T07:35:31.214Z,62.75
2018-03-22T07:36:31.131Z,62.28
2018-03-22T07:37:31.048Z,63.60
2018-03-22T07:38:30.969Z,63.60
2018-03-22T07:39:30.881Z,62.94
2018-03-22T07:40:30.804Z,62.37
2018-03-22T07:41:30.716Z,62.09
2018-03-22T07:42:30.634Z,62.09
2018-03-22T07:43:30.548Z,62.09
2018-03-22T07:44:30.466Z,62.94
2018-03-22T07:45:30.385Z,62.94
2018-03-22T07:46:30.302Z,62.56
2018-03-22T07:47:30.220Z,62.37
2018-03-22T07:48:30.147Z,62.47
2018-03-22T07:49:30.056Z,62.18
2018-03-22T07:50:29.971Z,62.28
2018-03-22T07:51:29.886Z,62.28
2018-03-22T07:52:29.806Z,63.23
2018-03-22T07:53:29.722Z,62.28
2018-03-22T07:54:29.644Z,62.09
2018-03-22T07:55:29.557Z,61.90
2018-03-22T07:56:29.474Z,61.33
2018-03-22T07:57:29.392Z,61.43
2018-03-22T07:58:29.308Z,61.80
2018-03-22T07:59:29.226Z,61.43
2018-03-22T08:00:29.143Z,62.56
2018-03-22T08:01:29.061Z,62.18
2018-03-22T08:02:28.981Z,62.56
2018-03-22T08:03:28.895Z,62.40
2018-03-22T08:04:28.814Z,62.59
2018-03-22T08:05:28.730Z,61.93
2018-03-22T08:06:28.647Z,62.50
2018-03-22T08:07:28.565Z,62.88
2018-03-22T08:08:28.482Z,62.78
2018-03-22T08:09:28.401Z,62.97
2018-03-22T08:10:28.318Z,62.78
2018-03-22T08:11:28.234Z,62.59
2018-03-22T08:12:28.167Z,61.83
2018-03-22T08:13:28.070Z,62.02
2018-03-22T08:14:27.993Z,62.50
2018-03-22T08:15:27.906Z,61.65
2018-03-22T08:16:27.823Z,62.69
2018-03-22T08:17:27.741Z,61.83
2018-03-22T08:18:27.659Z,62.21
2018-03-22T08:19:27.577Z,61.36
2018-03-22T08:20:27.495Z,61.58
2018-03-22T08:21:27.414Z,61.65
2018-03-22T08:22:27.332Z,61.65
2018-03-22T08:23:27.250Z,62.15
2018-03-22T08:24:27.169Z,62.53
2018-03-22T08:25:27.086Z,63.39
2018-03-22T08:26:27.006Z,62.53
2018-03-22T08:27:26.923Z,61.40
2018-03-22T08:28:26.847Z,61.96
2018-03-22T08:29:26.760Z,61.49
2018-03-22T08:30:26.678Z,61.87
2018-03-22T08:31:26.597Z,63.57
2018-03-22T08:32:26.515Z,63.76
2018-03-22T08:33:26.435Z,62.82
2018-03-22T08:34:26.354Z,62.62
2018-03-22T08:35:26.270Z,62.69
2018-03-22T08:36:26.190Z,63.64
2018-03-22T08:37:26.111Z,64.52
2018-03-22T08:38:26.028Z,63.82
2018-03-22T08:39:25.946Z,64.39
2018-03-22T08:40:25.864Z,64.87
2018-03-22T08:41:25.798Z,64.87
2018-03-22T08:42:25.701Z,64.77
2018-03-22T08:43:25.620Z,66.09
2018-03-22T08:44:25.543Z,65.15
2018-03-22T08:45:25.457Z,64.77
2018-03-22T08:46:25.375Z,65.81
2018-03-22T08:47:25.293Z,66.28
2018-03-22T08:48:25.211Z,65.53
2018-03-22T08:49:25.131Z,65.34
2018-03-22T08:50:25.050Z,65.25
2018-03-22T08:51:24.966Z,66.95
2018-03-22T08:52:24.887Z,66.00
2018-03-22T08:53:24.803Z,67.33
2018-03-22T08:54:24.729Z,67.61
2018-03-22T08:55:24.641Z,67.43
2018-03-22T08:56:24.556Z,68.08
2018-03-22T08:57:24.475Z,68.18
2018-03-22T08:58:24.394Z,68.37
2018-03-22T08:59:24.311Z,67.61
2018-03-22T09:00:24.229Z,67.24
2018-03-22T09:01:24.148Z,67.43
2018-03-22T09:02:24.066Z,68.18
2018-03-22T09:03:23.983Z,68.37
2018-03-22T09:04:23.901Z,68.94
2018-03-22T09:05:23.817Z,68.37
2018-03-22T09:06:23.737Z,68.88
2018-03-22T09:07:23.655Z,69.07
2018-03-22T09:08:23.573Z,69.73
2018-03-22T09:09:23.496Z,69.41
2018-03-22T09:10:23.409Z,69.54
2018-03-22T09:11:23.327Z,69.73
2018-03-22T09:12:23.244Z,69.82
2018-03-22T09:13:23.163Z,69.64
2018-03-22T09:14:23.132Z,69.54
2018-03-22T09:15:22.999Z,70.39
2018-03-22T09:16:22.916Z,69.73
2018-03-22T09:17:22.836Z,69.54
2018-03-22T09:18:22.754Z,69.17
2018-03-22T09:19:22.671Z,69.64
2018-03-22T09:20:22.589Z,68.79
2018-03-22T09:21:22.509Z,69.03
2018-03-22T09:22:22.461Z,69.82
2018-03-22T09:23:22.345Z,70.01
2018-03-22T09:24:22.262Z,70.55
2018-03-22T09:25:22.181Z,71.81
2018-03-22T09:26:22.099Z,72.44
2018-03-22T09:27:22.016Z,72.00
2018-03-22T09:28:21.934Z,72.34
2018-03-22T09:29:21.853Z,73.39
2018-03-22T09:30:21.771Z,74.24
2018-03-22T09:31:21.688Z,75.00
2018-03-22T09:32:21.607Z,76.70
2018-03-22T09:33:21.525Z,78.31
2018-03-22T09:34:21.445Z,79.36
2018-03-22T09:35:21.361Z,79.60
2018-03-22T09:36:21.278Z,81.06
2018-03-22T09:37:21.198Z,82.15
2018-03-22T09:38:21.115Z,82.48
2018-03-22T09:39:21.032Z,83.20
2018-03-22T09:40:20.949Z,84.05
2018-03-22T09:41:20.868Z,84.71
2018-03-22T09:42:20.785Z,86.13
2018-03-22T09:43:20.704Z,86.79
2018-03-22T09:44:20.623Z,87.55
2018-03-22T09:45:20.539Z,87.36
2018-03-22T09:46:20.456Z,87.55
2018-03-22T09:47:20.373Z,87.46
2018-03-22T09:48:20.290Z,87.84
2018-03-22T09:49:20.209Z,87.74
2018-03-22T09:50:20.126Z,88.49
2018-03-22T09:51:20.049Z,88.78
2018-03-22T09:52:19.961Z,89.63
2018-03-22T09:53:19.882Z,90.11
2018-03-22T09:54:19.796Z,89.82
2018-03-22T09:55:19.715Z,90.11
2018-03-22T09:56:19.629Z,90.11
2018-03-22T09:57:19.548Z,90.67
2018-03-22T09:58:19.465Z,92.47
2018-03-22T09:59:19.382Z,92.10
2018-03-22T10:00:19.300Z,92.00
2018-03-22T10:01:19.218Z,92.10
2018-03-22T10:02:19.135Z,91.91
2018-03-22T10:03:19.052Z,93.65
2018-03-22T10:04:18.970Z,93.23
2018-03-22T10:05:18.887Z,93.18
2018-03-22T10:06:18.805Z,93.65
2018-03-22T10:07:18.722Z,92.90
2018-03-22T10:08:18.640Z,93.18
2018-03-22T10:09:18.558Z,92.99
2018-03-22T10:10:18.475Z,93.46
2018-03-22T10:11:18.392Z,92.71
2018-03-22T10:12:18.309Z,92.99
2018-03-22T10:13:18.226Z,93.46
2018-03-22T10:14:18.149Z,93.18
2018-03-22T10:15:18.063Z,92.85
2018-03-22T10:16:18.024Z,93.75
2018-03-22T10:17:17.899Z,94.23
2018-03-22T10:18:17.817Z,94.79
2018-03-22T10:19:17.735Z,95.03
2018-03-22T10:20:17.651Z,94.89
2018-03-22T10:21:17.571Z,95.36
2018-03-22T10:22:17.489Z,95.17
2018-03-22T10:23:17.406Z,94.18
2018-03-22T10:24:17.324Z,95.03
2018-03-22T10:25:17.243Z,96.54
2018-03-22T10:26:17.161Z,97.11
2018-03-22T10:27:17.078Z,98.06
2018-03-22T10:28:16.999Z,98.72
2018-03-22T10:29:16.913Z,98.44
2018-03-22T10:30:16.830Z,97.68
2018-03-22T10:31:16.750Z,97.58
2018-03-22T10:32:16.666Z,97.77
2018-03-22T10:33:16.584Z,99.01
2018-03-22T10:34:16.501Z,99.29
2018-03-22T10:35:16.418Z,98.34
2018-03-22T10:36:16.336Z,98.82
2018-03-22T10:37:16.253Z,98.34
2018-03-22T10:38:16.180Z,97.30
2018-03-22T10:39:16.087Z,96.54
2018-03-22T10:40:16.006Z,97.11
2018-03-22T10:41:15.924Z,96.83
2018-03-22T10:42:15.847Z,97.11
2018-03-22T10:43:15.758Z,97.96
2018-03-22T10:44:15.676Z,99.19
2018-03-22T10:45:15.595Z,98.91
2018-03-22T10:46:15.511Z,98.91
2018-03-22T10:47:15.429Z,98.34
2018-03-22T10:48:15.347Z,97.96
2018-03-22T10:49:15.266Z,97.96
2018-03-22T10:50:15.183Z,97.39
2018-03-22T10:51:15.099Z,97.68
2018-03-22T10:52:15.016Z,98.25
2018-03-22T10:53:14.935Z,98.15
2018-03-22T10:54:14.852Z,98.44
2018-03-22T10:55:14.769Z,98.82
2018-03-22T10:56:14.687Z,98.44
2018-03-22T10:57:14.605Z,99.38
2018-03-22T10:58:14.523Z,98.72
2018-03-22T10:59:14.438Z,97.77
2018-03-22T11:00:14.356Z,98.34
2018-03-22T11:01:14.275Z,98.34
2018-03-22T11:02:14.192Z,99.38
2018-03-22T11:03:14.110Z,99.99
2018-03-22T11:04:14.026Z,99.99
2018-03-22T11:05:13.944Z,99.99
2018-03-22T11:06:13.862Z,99.99
2018-03-22T11:07:13.778Z,99.99
2018-03-22T11:08:13.695Z,99.99
2018-03-22T11:09:13.613Z,99.99
2018-03-22T11:10:13.530Z,99.99
2018-03-22T11:11:13.448Z,99.99
2018-03-22T11:12:13.365Z,99.99
2018-03-22T11:13:13.284Z,99.99
2018-03-22T11:14:13.199Z,99.99
2018-03-22T11:15:13.115Z,99.99
2018-03-22T11:16:13.034Z,99.99
2018-03-22T11:17:12.950Z,99.99
2018-03-22T11:18:12.868Z,99.99
2018-03-22T11:19:12.784Z,99.99
2018-03-22T11:20:12.704Z,99.99
2018-03-22T11:21:12.619Z,99.99
2018-03-22T11:22:12.537Z,99.99
2018-03-22T11:23:12.453Z,99.99
2018-03-22T11:24:12.369Z,99.99
2018-03-22T11:25:12.288Z,99.99
2018-03-22T11:26:12.204Z,99.99
2018-03-22T11:27:12.121Z,99.99
2018-03-22T11:28:12.040Z,99.99
2018-03-22T11:29:11.956Z,99.99
2018-03-22T11:30:11.873Z,99.99
2018-03-22T11:31:11.790Z,99.99
2018-03-22T11:32:11.708Z,99.99
2018-03-22T11:33:11.626Z,99.99
2018-03-22T11:34:11.542Z,99.99
2018-03-22T11:35:11.458Z,99.99
2018-03-22T11:36:11.376Z,99.99
2018-03-22T11:37:11.293Z,99.99
2018-03-22T11:38:11.211Z,99.99
2018-03-22T11:39:11.128Z,99.99
2018-03-22T11:40:11.046Z,99.99
2018-03-22T11:41:10.962Z,99.99
2018-03-22T11:42:10.881Z,99.99
2018-03-22T11:43:10.797Z,99.99
2018-03-22T11:44:10.714Z,99.99
2018-03-22T11:45:10.631Z,99.99
2018-03-22T11:46:10.549Z,99.99
2018-03-22T11:47:10.467Z,99.99
2018-03-22T11:48:10.383Z,99.99
2018-03-22T11:49:10.300Z,99.99
2018-03-22T11:50:10.218Z,99.99
2018-03-22T11:51:10.135Z,99.99
2018-03-22T11:52:10.053Z,99.99
2018-03-22T11:53:09.970Z,99.99
2018-03-22T11:54:09.887Z,99.99
2018-03-22T11:55:09.810Z,99.99
2018-03-22T11:56:09.723Z,99.99
2018-03-22T11:57:09.640Z,99.99
2018-03-22T11:58:09.558Z,99.99
2018-03-22T11:59:09.486Z,99.99
2018-03-22T12:00:09.393Z,99.99
2018-03-22T12:01:09.310Z,99.99
2018-03-22T12:02:09.228Z,99.99
2018-03-22T12:03:09.143Z,99.99
2018-03-22T12:04:09.062Z,99.99
2018-03-22T12:05:08.980Z,99.99
2018-03-22T12:06:08.897Z,99.99
2018-03-22T12:07:08.815Z,99.99
2018-03-22T12:08:08.732Z,99.99
2018-03-22T12:09:08.650Z,99.99
2018-03-22T12:10:08.569Z,99.99
2018-03-22T12:11:08.501Z,99.99
2018-03-22T12:12:08.402Z,99.99
2018-03-22T12:13:08.320Z,99.99
2018-03-22T12:14:08.238Z,99.99
2018-03-22T12:15:08.154Z,99.99
2018-03-22T12:16:08.079Z,99.99
2018-03-22T12:17:07.991Z,99.99
2018-03-22T12:18:07.906Z,99.99
2018-03-22T12:19:07.823Z,99.99
2018-03-22T12:20:07.739Z,99.99
2018-03-22T12:21:07.659Z,99.99
2018-03-22T12:22:07.576Z,99.99
2018-03-22T12:23:07.492Z,99.99
2018-03-22T12:24:07.414Z,99.99
2018-03-22T12:25:07.327Z,99.99
2018-03-22T12:26:07.245Z,99.99
2018-03-22T12:27:07.161Z,99.99
2018-03-22T12:28:07.079Z,99.99
2018-03-22T12:29:06.996Z,99.99
2018-03-22T12:30:06.912Z,99.99
2018-03-22T12:31:06.831Z,99.99
2018-03-22T12:32:06.746Z,99.99
2018-03-22T12:33:06.663Z,99.99
2018-03-22T12:34:06.581Z,99.99
2018-03-22T12:35:06.496Z,99.99
2018-03-22T12:36:06.413Z,99.99
2018-03-22T12:37:06.330Z,99.99
2018-03-22T12:38:06.247Z,99.99
2018-03-22T12:39:06.163Z,99.99
2018-03-22T12:40:06.079Z,99.99
2018-03-22T12:41:05.998Z,99.99
2018-03-22T12:42:05.914Z,99.99
2018-03-22T12:43:05.829Z,99.99
2018-03-22T12:44:05.749Z,99.99
2018-03-22T12:45:05.663Z,99.99
2018-03-22T12:46:05.580Z,99.99
2018-03-22T12:47:05.495Z,99.99
2018-03-22T12:48:05.420Z,99.99
2018-03-22T12:49:05.330Z,99.99
2018-03-22T12:50:05.246Z,99.99
2018-03-22T12:51:05.162Z,99.99